sensor_id;sensor_type;location;lat;lon;timestamp;P1;durP1;ratioP1;P2;durP2;ratioP2
41217;SDS011;26950;50.960;7.138;2023-06-14T00:00:31;7.75;;;4.85;;
41217;SDS011;26950;50.960;7.138;2023-06-14T00:02:59;8.15;;;5.03;;
41217;SDS011;26950;50.960;7.138;2023-06-14T00:05:25;8.88;;;4.80;;
41217;SDS011;26950;50.960;7.138;2023-06-14T00:07:54;9.25;;;4.53;;
41217;SDS011;26950;50.960;7.138;2023-06-14T00:10:21;7.20;;;4.75;;
41217;SDS011;26950;50.960;7.138;2023-06-14T00:12:49;6.30;;;4.88;;
41217;SDS011;26950;50.960;7.138;2023-06-14T00:15:15;10.02;;;4.90;;
41217;SDS011;26950;50.960;7.138;2023-06-14T00:17:42;8.60;;;4.60;;
41217;SDS011;26950;50.960;7.138;2023-06-14T00:20:10;7.65;;;5.22;;
41217;SDS011;26950;50.960;7.138;2023-06-14T00:22:37;7.20;;;4.70;;
41217;SDS011;26950;50.960;7.138;2023-06-14T00:25:04;13.13;;;5.18;;
41217;SDS011;26950;50.960;7.138;2023-06-14T00:27:31;10.38;;;4.97;;
41217;SDS011;26950;50.960;7.138;2023-06-14T00:29:59;7.57;;;4.85;;
41217;SDS011;26950;50.960;7.138;2023-06-14T00:32:25;8.55;;;4.88;;
41217;SDS011;26950;50.960;7.138;2023-06-14T00:34:52;8.20;;;5.03;;
41217;SDS011;26950;50.960;7.138;2023-06-14T00:37:19;6.75;;;5.10;;
41217;SDS011;26950;50.960;7.138;2023-06-14T00:39:45;6.78;;;4.68;;
41217;SDS011;26950;50.960;7.138;2023-06-14T00:42:22;6.93;;;4.65;;
41217;SDS011;26950;50.960;7.138;2023-06-14T00:44:49;8.70;;;5.05;;
41217;SDS011;26950;50.960;7.138;2023-06-14T00:47:17;6.30;;;4.60;;
41217;SDS011;26950;50.960;7.138;2023-06-14T00:49:45;6.25;;;4.75;;
41217;SDS011;26950;50.960;7.138;2023-06-14T00:52:12;7.97;;;4.55;;
41217;SDS011;26950;50.960;7.138;2023-06-14T00:54:40;6.25;;;4.93;;
41217;SDS011;26950;50.960;7.138;2023-06-14T00:57:07;9.40;;;4.70;;
41217;SDS011;26950;50.960;7.138;2023-06-14T00:59:33;9.32;;;4.38;;
41217;SDS011;26950;50.960;7.138;2023-06-14T01:02:06;8.43;;;4.70;;
41217;SDS011;26950;50.960;7.138;2023-06-14T01:04:35;11.68;;;4.88;;
41217;SDS011;26950;50.960;7.138;2023-06-14T01:07:04;7.85;;;4.85;;
41217;SDS011;26950;50.960;7.138;2023-06-14T01:09:41;9.00;;;4.57;;
41217;SDS011;26950;50.960;7.138;2023-06-14T01:12:21;8.23;;;4.55;;
41217;SDS011;26950;50.960;7.138;2023-06-14T01:14:55;7.32;;;4.60;;
41217;SDS011;26950;50.960;7.138;2023-06-14T01:17:23;9.63;;;4.82;;
41217;SDS011;26950;50.960;7.138;2023-06-14T01:19:53;9.52;;;4.43;;
41217;SDS011;26950;50.960;7.138;2023-06-14T01:22:23;8.05;;;4.30;;
41217;SDS011;26950;50.960;7.138;2023-06-14T01:24:52;10.18;;;4.70;;
41217;SDS011;26950;50.960;7.138;2023-06-14T01:27:21;9.63;;;4.55;;
41217;SDS011;26950;50.960;7.138;2023-06-14T01:29:49;9.82;;;4.15;;
41217;SDS011;26950;50.960;7.138;2023-06-14T01:32:16;8.88;;;4.70;;
41217;SDS011;26950;50.960;7.138;2023-06-14T01:34:44;6.47;;;4.35;;
41217;SDS011;26950;50.960;7.138;2023-06-14T01:37:11;10.90;;;4.68;;
41217;SDS011;26950;50.960;7.138;2023-06-14T01:39:39;7.72;;;4.50;;
41217;SDS011;26950;50.960;7.138;2023-06-14T01:42:10;8.98;;;4.55;;
41217;SDS011;26950;50.960;7.138;2023-06-14T01:44:37;8.70;;;4.20;;
41217;SDS011;26950;50.960;7.138;2023-06-14T01:47:04;7.88;;;4.50;;
41217;SDS011;26950;50.960;7.138;2023-06-14T01:49:33;5.75;;;4.20;;
41217;SDS011;26950;50.960;7.138;2023-06-14T01:51:59;10.30;;;4.25;;
41217;SDS011;26950;50.960;7.138;2023-06-14T01:54:26;8.27;;;4.10;;
41217;SDS011;26950;50.960;7.138;2023-06-14T01:56:54;10.38;;;3.97;;
41217;SDS011;26950;50.960;7.138;2023-06-14T01:59:22;9.25;;;4.20;;
41217;SDS011;26950;50.960;7.138;2023-06-14T02:01:49;9.95;;;3.90;;
41217;SDS011;26950;50.960;7.138;2023-06-14T02:04:16;6.47;;;4.10;;
41217;SDS011;26950;50.960;7.138;2023-06-14T02:06:43;6.90;;;4.28;;
41217;SDS011;26950;50.960;7.138;2023-06-14T02:09:09;4.90;;;4.05;;
41217;SDS011;26950;50.960;7.138;2023-06-14T02:11:36;6.18;;;4.32;;
41217;SDS011;26950;50.960;7.138;2023-06-14T02:14:02;9.38;;;4.20;;
41217;SDS011;26950;50.960;7.138;2023-06-14T02:16:30;9.77;;;4.13;;
41217;SDS011;26950;50.960;7.138;2023-06-14T02:18:57;9.32;;;4.18;;
41217;SDS011;26950;50.960;7.138;2023-06-14T02:21:24;11.10;;;4.32;;
41217;SDS011;26950;50.960;7.138;2023-06-14T02:23:50;8.52;;;4.30;;
41217;SDS011;26950;50.960;7.138;2023-06-14T02:26:17;6.63;;;4.20;;
41217;SDS011;26950;50.960;7.138;2023-06-14T02:28:44;5.70;;;3.60;;
41217;SDS011;26950;50.960;7.138;2023-06-14T02:31:10;6.32;;;3.83;;
41217;SDS011;26950;50.960;7.138;2023-06-14T02:33:38;6.68;;;3.72;;
41217;SDS011;26950;50.960;7.138;2023-06-14T02:36:05;6.47;;;4.10;;
41217;SDS011;26950;50.960;7.138;2023-06-14T02:38:32;8.70;;;4.00;;
41217;SDS011;26950;50.960;7.138;2023-06-14T02:40:58;7.82;;;4.03;;
41217;SDS011;26950;50.960;7.138;2023-06-14T02:43:28;6.38;;;3.88;;
41217;SDS011;26950;50.960;7.138;2023-06-14T02:45:55;7.57;;;3.90;;
41217;SDS011;26950;50.960;7.138;2023-06-14T02:48:21;10.23;;;4.13;;
41217;SDS011;26950;50.960;7.138;2023-06-14T02:50:49;6.90;;;3.65;;
41217;SDS011;26950;50.960;7.138;2023-06-14T02:53:16;7.63;;;3.53;;
41217;SDS011;26950;50.960;7.138;2023-06-14T02:55:42;9.60;;;4.20;;
41217;SDS011;26950;50.960;7.138;2023-06-14T02:58:09;8.88;;;4.22;;
41217;SDS011;26950;50.960;7.138;2023-06-14T03:00:35;8.45;;;4.32;;
41217;SDS011;26950;50.960;7.138;2023-06-14T03:03:03;7.55;;;3.63;;
41217;SDS011;26950;50.960;7.138;2023-06-14T03:05:38;6.78;;;3.85;;
41217;SDS011;26950;50.960;7.138;2023-06-14T03:08:07;7.22;;;4.03;;
41217;SDS011;26950;50.960;7.138;2023-06-14T03:10:33;7.07;;;3.72;;
41217;SDS011;26950;50.960;7.138;2023-06-14T03:13:01;8.95;;;3.75;;
41217;SDS011;26950;50.960;7.138;2023-06-14T03:15:27;7.80;;;4.00;;
41217;SDS011;26950;50.960;7.138;2023-06-14T03:17:54;4.75;;;3.70;;
41217;SDS011;26950;50.960;7.138;2023-06-14T03:20:20;8.32;;;4.10;;
41217;SDS011;26950;50.960;7.138;2023-06-14T03:22:48;8.93;;;4.03;;
41217;SDS011;26950;50.960;7.138;2023-06-14T03:25:16;5.88;;;3.97;;
41217;SDS011;26950;50.960;7.138;2023-06-14T03:27:43;8.73;;;4.90;;
41217;SDS011;26950;50.960;7.138;2023-06-14T03:30:10;5.93;;;4.40;;
41217;SDS011;26950;50.960;7.138;2023-06-14T03:32:37;6.97;;;3.90;;
41217;SDS011;26950;50.960;7.138;2023-06-14T03:35:04;7.95;;;4.07;;
41217;SDS011;26950;50.960;7.138;2023-06-14T03:37:31;8.43;;;3.92;;
41217;SDS011;26950;50.960;7.138;2023-06-14T03:39:57;8.32;;;4.07;;
41217;SDS011;26950;50.960;7.138;2023-06-14T03:42:25;7.65;;;4.03;;
41217;SDS011;26950;50.960;7.138;2023-06-14T03:44:52;6.20;;;4.25;;
41217;SDS011;26950;50.960;7.138;2023-06-14T03:47:18;7.95;;;3.75;;
41217;SDS011;26950;50.960;7.138;2023-06-14T03:49:45;8.02;;;4.13;;
41217;SDS011;26950;50.960;7.138;2023-06-14T03:52:11;7.80;;;4.20;;
41217;SDS011;26950;50.960;7.138;2023-06-14T03:54:39;11.80;;;4.18;;
41217;SDS011;26950;50.960;7.138;2023-06-14T03:57:06;7.53;;;3.95;;
41217;SDS011;26950;50.960;7.138;2023-06-14T03:59:33;6.72;;;4.10;;
41217;SDS011;26950;50.960;7.138;2023-06-14T04:02:00;8.80;;;4.45;;
41217;SDS011;26950;50.960;7.138;2023-06-14T04:04:27;5.93;;;3.80;;
41217;SDS011;26950;50.960;7.138;2023-06-14T04:06:54;7.20;;;4.15;;
41217;SDS011;26950;50.960;7.138;2023-06-14T04:09:21;6.85;;;4.00;;
41217;SDS011;26950;50.960;7.138;2023-06-14T04:11:49;5.22;;;4.05;;
41217;SDS011;26950;50.960;7.138;2023-06-14T04:14:16;8.32;;;4.13;;
41217;SDS011;26950;50.960;7.138;2023-06-14T04:16:44;9.05;;;4.25;;
41217;SDS011;26950;50.960;7.138;2023-06-14T04:19:11;8.48;;;4.18;;
41217;SDS011;26950;50.960;7.138;2023-06-14T04:21:37;6.05;;;4.15;;
41217;SDS011;26950;50.960;7.138;2023-06-14T04:24:04;7.28;;;3.80;;
41217;SDS011;26950;50.960;7.138;2023-06-14T04:26:31;11.27;;;4.15;;
41217;SDS011;26950;50.960;7.138;2023-06-14T04:28:58;6.68;;;4.20;;
41217;SDS011;26950;50.960;7.138;2023-06-14T04:31:27;8.85;;;4.15;;
41217;SDS011;26950;50.960;7.138;2023-06-14T04:33:55;6.78;;;4.00;;
41217;SDS011;26950;50.960;7.138;2023-06-14T04:36:22;8.40;;;3.63;;
41217;SDS011;26950;50.960;7.138;2023-06-14T04:38:50;8.15;;;4.35;;
41217;SDS011;26950;50.960;7.138;2023-06-14T04:41:19;6.90;;;3.92;;
41217;SDS011;26950;50.960;7.138;2023-06-14T04:43:47;7.20;;;4.30;;
41217;SDS011;26950;50.960;7.138;2023-06-14T04:46:14;10.07;;;4.10;;
41217;SDS011;26950;50.960;7.138;2023-06-14T04:48:41;7.18;;;4.00;;
41217;SDS011;26950;50.960;7.138;2023-06-14T04:51:09;6.55;;;3.92;;
41217;SDS011;26950;50.960;7.138;2023-06-14T04:53:35;10.38;;;4.30;;
41217;SDS011;26950;50.960;7.138;2023-06-14T04:56:03;9.13;;;3.97;;
41217;SDS011;26950;50.960;7.138;2023-06-14T04:58:29;15.20;;;4.22;;
41217;SDS011;26950;50.960;7.138;2023-06-14T05:00:56;7.38;;;4.18;;
41217;SDS011;26950;50.960;7.138;2023-06-14T05:03:24;8.18;;;4.15;;
41217;SDS011;26950;50.960;7.138;2023-06-14T05:05:51;10.93;;;4.00;;
41217;SDS011;26950;50.960;7.138;2023-06-14T05:08:20;8.95;;;4.20;;
41217;SDS011;26950;50.960;7.138;2023-06-14T05:10:48;9.10;;;3.95;;
41217;SDS011;26950;50.960;7.138;2023-06-14T05:13:14;5.28;;;3.55;;
41217;SDS011;26950;50.960;7.138;2023-06-14T05:15:41;7.70;;;3.88;;
41217;SDS011;26950;50.960;7.138;2023-06-14T05:18:08;5.85;;;3.45;;
41217;SDS011;26950;50.960;7.138;2023-06-14T05:20:35;8.55;;;3.97;;
41217;SDS011;26950;50.960;7.138;2023-06-14T05:23:02;5.97;;;3.65;;
41217;SDS011;26950;50.960;7.138;2023-06-14T05:25:30;7.78;;;3.47;;
41217;SDS011;26950;50.960;7.138;2023-06-14T05:27:56;6.65;;;3.75;;
41217;SDS011;26950;50.960;7.138;2023-06-14T05:30:23;5.85;;;3.60;;
41217;SDS011;26950;50.960;7.138;2023-06-14T05:32:52;7.07;;;3.70;;
41217;SDS011;26950;50.960;7.138;2023-06-14T05:35:20;4.75;;;3.10;;
41217;SDS011;26950;50.960;7.138;2023-06-14T05:37:48;5.32;;;3.60;;
41217;SDS011;26950;50.960;7.138;2023-06-14T05:40:15;10.30;;;3.53;;
41217;SDS011;26950;50.960;7.138;2023-06-14T05:42:43;8.55;;;3.65;;
41217;SDS011;26950;50.960;7.138;2023-06-14T05:45:10;11.93;;;3.05;;
41217;SDS011;26950;50.960;7.138;2023-06-14T05:47:40;6.18;;;3.38;;
41217;SDS011;26950;50.960;7.138;2023-06-14T05:50:06;5.70;;;3.55;;
41217;SDS011;26950;50.960;7.138;2023-06-14T05:52:33;7.28;;;3.00;;
41217;SDS011;26950;50.960;7.138;2023-06-14T05:55:00;6.07;;;3.20;;
41217;SDS011;26950;50.960;7.138;2023-06-14T05:57:27;6.40;;;3.00;;
41217;SDS011;26950;50.960;7.138;2023-06-14T05:59:55;6.20;;;3.10;;
41217;SDS011;26950;50.960;7.138;2023-06-14T06:02:21;7.22;;;3.30;;
41217;SDS011;26950;50.960;7.138;2023-06-14T06:04:48;8.18;;;3.40;;
41217;SDS011;26950;50.960;7.138;2023-06-14T06:07:14;10.85;;;3.28;;
41217;SDS011;26950;50.960;7.138;2023-06-14T06:09:41;5.88;;;3.40;;
41217;SDS011;26950;50.960;7.138;2023-06-14T06:12:08;7.10;;;3.10;;
41217;SDS011;26950;50.960;7.138;2023-06-14T06:14:35;5.07;;;3.20;;
41217;SDS011;26950;50.960;7.138;2023-06-14T06:17:03;4.75;;;3.25;;
41217;SDS011;26950;50.960;7.138;2023-06-14T06:19:30;6.47;;;2.92;;
41217;SDS011;26950;50.960;7.138;2023-06-14T06:21:57;8.32;;;2.78;;
41217;SDS011;26950;50.960;7.138;2023-06-14T06:24:23;6.35;;;3.10;;
41217;SDS011;26950;50.960;7.138;2023-06-14T06:26:50;6.15;;;3.20;;
41217;SDS011;26950;50.960;7.138;2023-06-14T06:29:16;5.68;;;3.17;;
41217;SDS011;26950;50.960;7.138;2023-06-14T06:31:43;8.60;;;3.03;;
41217;SDS011;26950;50.960;7.138;2023-06-14T06:34:12;5.55;;;2.90;;
41217;SDS011;26950;50.960;7.138;2023-06-14T06:36:38;3.92;;;2.63;;
41217;SDS011;26950;50.960;7.138;2023-06-14T06:39:05;5.88;;;2.85;;
41217;SDS011;26950;50.960;7.138;2023-06-14T06:41:35;6.72;;;3.28;;
41217;SDS011;26950;50.960;7.138;2023-06-14T06:44:02;6.03;;;2.80;;
41217;SDS011;26950;50.960;7.138;2023-06-14T06:46:29;5.50;;;2.72;;
41217;SDS011;26950;50.960;7.138;2023-06-14T06:48:55;4.07;;;2.60;;
41217;SDS011;26950;50.960;7.138;2023-06-14T06:51:23;7.40;;;2.80;;
41217;SDS011;26950;50.960;7.138;2023-06-14T06:53:52;4.10;;;2.70;;
41217;SDS011;26950;50.960;7.138;2023-06-14T06:56:19;7.80;;;2.75;;
41217;SDS011;26950;50.960;7.138;2023-06-14T06:58:46;4.55;;;2.72;;
41217;SDS011;26950;50.960;7.138;2023-06-14T07:01:13;5.85;;;3.03;;
41217;SDS011;26950;50.960;7.138;2023-06-14T07:03:39;4.80;;;2.53;;
41217;SDS011;26950;50.960;7.138;2023-06-14T07:06:06;4.55;;;2.78;;
41217;SDS011;26950;50.960;7.138;2023-06-14T07:08:34;5.38;;;2.60;;
41217;SDS011;26950;50.960;7.138;2023-06-14T07:11:00;4.22;;;2.63;;
41217;SDS011;26950;50.960;7.138;2023-06-14T07:13:27;4.72;;;2.65;;
41217;SDS011;26950;50.960;7.138;2023-06-14T07:15:54;2.90;;;2.28;;
41217;SDS011;26950;50.960;7.138;2023-06-14T07:18:23;4.57;;;2.40;;
41217;SDS011;26950;50.960;7.138;2023-06-14T07:20:49;2.90;;;2.17;;
41217;SDS011;26950;50.960;7.138;2023-06-14T07:23:17;5.72;;;2.47;;
41217;SDS011;26950;50.960;7.138;2023-06-14T07:25:45;7.45;;;2.17;;
41217;SDS011;26950;50.960;7.138;2023-06-14T07:28:11;3.05;;;1.90;;
41217;SDS011;26950;50.960;7.138;2023-06-14T07:30:38;6.93;;;2.17;;
41217;SDS011;26950;50.960;7.138;2023-06-14T07:33:04;2.70;;;1.77;;
41217;SDS011;26950;50.960;7.138;2023-06-14T07:35:33;2.83;;;2.00;;
41217;SDS011;26950;50.960;7.138;2023-06-14T07:37:59;4.28;;;2.03;;
41217;SDS011;26950;50.960;7.138;2023-06-14T07:40:26;4.95;;;1.63;;
41217;SDS011;26950;50.960;7.138;2023-06-14T07:42:54;3.03;;;1.60;;
41217;SDS011;26950;50.960;7.138;2023-06-14T07:45:20;3.85;;;1.70;;
41217;SDS011;26950;50.960;7.138;2023-06-14T07:47:47;3.70;;;1.70;;
41217;SDS011;26950;50.960;7.138;2023-06-14T07:50:13;3.55;;;1.70;;
41217;SDS011;26950;50.960;7.138;2023-06-14T07:52:40;4.50;;;1.60;;
41217;SDS011;26950;50.960;7.138;2023-06-14T07:55:07;3.22;;;1.70;;
41217;SDS011;26950;50.960;7.138;2023-06-14T07:57:33;6.03;;;1.58;;
41217;SDS011;26950;50.960;7.138;2023-06-14T08:00:01;2.30;;;1.55;;
41217;SDS011;26950;50.960;7.138;2023-06-14T08:02:31;2.92;;;1.60;;
41217;SDS011;26950;50.960;7.138;2023-06-14T08:04:57;3.63;;;1.60;;
41217;SDS011;26950;50.960;7.138;2023-06-14T08:07:24;2.78;;;1.70;;
41217;SDS011;26950;50.960;7.138;2023-06-14T08:09:50;3.47;;;1.73;;
41217;SDS011;26950;50.960;7.138;2023-06-14T08:12:17;2.80;;;1.90;;
41217;SDS011;26950;50.960;7.138;2023-06-14T08:14:43;4.38;;;1.90;;
41217;SDS011;26950;50.960;7.138;2023-06-14T08:17:11;8.82;;;2.03;;
41217;SDS011;26950;50.960;7.138;2023-06-14T08:19:38;3.25;;;1.50;;
41217;SDS011;26950;50.960;7.138;2023-06-14T08:22:04;3.95;;;1.92;;
41217;SDS011;26950;50.960;7.138;2023-06-14T08:24:31;4.32;;;1.58;;
41217;SDS011;26950;50.960;7.138;2023-06-14T08:26:58;3.83;;;1.70;;
41217;SDS011;26950;50.960;7.138;2023-06-14T08:29:26;2.13;;;1.50;;
41217;SDS011;26950;50.960;7.138;2023-06-14T08:31:54;3.50;;;1.70;;
41217;SDS011;26950;50.960;7.138;2023-06-14T08:34:22;3.13;;;1.70;;
41217;SDS011;26950;50.960;7.138;2023-06-14T08:36:49;2.38;;;1.60;;
41217;SDS011;26950;50.960;7.138;2023-06-14T08:39:16;2.08;;;1.52;;
41217;SDS011;26950;50.960;7.138;2023-06-14T08:41:44;4.07;;;1.70;;
41217;SDS011;26950;50.960;7.138;2023-06-14T08:44:13;2.85;;;1.73;;
41217;SDS011;26950;50.960;7.138;2023-06-14T08:46:40;5.25;;;1.67;;
41217;SDS011;26950;50.960;7.138;2023-06-14T08:49:08;4.22;;;2.03;;
41217;SDS011;26950;50.960;7.138;2023-06-14T08:51:38;2.28;;;1.63;;
41217;SDS011;26950;50.960;7.138;2023-06-14T08:54:05;2.42;;;1.58;;
41217;SDS011;26950;50.960;7.138;2023-06-14T08:56:33;4.15;;;1.60;;
41217;SDS011;26950;50.960;7.138;2023-06-14T08:59:00;6.18;;;1.95;;
41217;SDS011;26950;50.960;7.138;2023-06-14T09:01:28;3.55;;;1.65;;
41217;SDS011;26950;50.960;7.138;2023-06-14T09:03:56;2.40;;;1.60;;
41217;SDS011;26950;50.960;7.138;2023-06-14T09:06:23;3.28;;;1.60;;
41217;SDS011;26950;50.960;7.138;2023-06-14T09:08:51;2.00;;;1.55;;
41217;SDS011;26950;50.960;7.138;2023-06-14T09:11:18;2.85;;;1.83;;
41217;SDS011;26950;50.960;7.138;2023-06-14T09:13:45;2.55;;;1.73;;
41217;SDS011;26950;50.960;7.138;2023-06-14T09:16:12;2.25;;;1.70;;
41217;SDS011;26950;50.960;7.138;2023-06-14T09:18:39;2.40;;;1.90;;
41217;SDS011;26950;50.960;7.138;2023-06-14T09:21:09;3.20;;;1.75;;
41217;SDS011;26950;50.960;7.138;2023-06-14T09:23:36;2.38;;;1.60;;
41217;SDS011;26950;50.960;7.138;2023-06-14T09:26:09;3.08;;;1.77;;
41217;SDS011;26950;50.960;7.138;2023-06-14T09:28:36;2.90;;;1.80;;
41217;SDS011;26950;50.960;7.138;2023-06-14T09:31:07;3.55;;;1.70;;
41217;SDS011;26950;50.960;7.138;2023-06-14T09:33:34;2.83;;;1.90;;
41217;SDS011;26950;50.960;7.138;2023-06-14T09:36:01;4.03;;;1.67;;
41217;SDS011;26950;50.960;7.138;2023-06-14T09:38:28;3.90;;;1.70;;
41217;SDS011;26950;50.960;7.138;2023-06-14T09:40:56;2.33;;;1.60;;
41217;SDS011;26950;50.960;7.138;2023-06-14T09:43:25;2.05;;;1.80;;
41217;SDS011;26950;50.960;7.138;2023-06-14T09:45:53;4.13;;;1.70;;
41217;SDS011;26950;50.960;7.138;2023-06-14T09:48:20;2.78;;;1.70;;
41217;SDS011;26950;50.960;7.138;2023-06-14T09:50:47;3.25;;;1.85;;
41217;SDS011;26950;50.960;7.138;2023-06-14T09:53:16;4.13;;;1.83;;
41217;SDS011;26950;50.960;7.138;2023-06-14T09:55:47;3.10;;;1.80;;
41217;SDS011;26950;50.960;7.138;2023-06-14T09:58:15;4.20;;;1.98;;
41217;SDS011;26950;50.960;7.138;2023-06-14T10:00:45;3.42;;;1.75;;
41217;SDS011;26950;50.960;7.138;2023-06-14T10:03:18;4.50;;;1.70;;
41217;SDS011;26950;50.960;7.138;2023-06-14T10:05:50;4.25;;;1.70;;
41217;SDS011;26950;50.960;7.138;2023-06-14T10:08:18;4.35;;;1.80;;
41217;SDS011;26950;50.960;7.138;2023-06-14T10:10:50;2.95;;;1.60;;
41217;SDS011;26950;50.960;7.138;2023-06-14T10:13:17;5.07;;;1.70;;
41217;SDS011;26950;50.960;7.138;2023-06-14T10:15:48;6.97;;;1.70;;
41217;SDS011;26950;50.960;7.138;2023-06-14T10:18:23;2.72;;;1.50;;
41217;SDS011;26950;50.960;7.138;2023-06-14T10:21:00;2.88;;;1.80;;
41217;SDS011;26950;50.960;7.138;2023-06-14T10:23:34;3.83;;;1.77;;
41217;SDS011;26950;50.960;7.138;2023-06-14T10:26:03;3.10;;;1.85;;
41217;SDS011;26950;50.960;7.138;2023-06-14T10:28:30;5.78;;;1.92;;
41217;SDS011;26950;50.960;7.138;2023-06-14T10:31:08;4.30;;;1.90;;
41217;SDS011;26950;50.960;7.138;2023-06-14T10:33:39;4.78;;;1.60;;
41217;SDS011;26950;50.960;7.138;2023-06-14T10:36:09;3.05;;;1.75;;
41217;SDS011;26950;50.960;7.138;2023-06-14T10:38:56;5.03;;;2.28;;
41217;SDS011;26950;50.960;7.138;2023-06-14T10:41:24;2.75;;;1.70;;
41217;SDS011;26950;50.960;7.138;2023-06-14T10:43:52;3.55;;;1.95;;
41217;SDS011;26950;50.960;7.138;2023-06-14T10:46:37;2.47;;;1.70;;
41217;SDS011;26950;50.960;7.138;2023-06-14T10:49:05;4.80;;;2.13;;
41217;SDS011;26950;50.960;7.138;2023-06-14T10:51:38;3.25;;;1.90;;
41217;SDS011;26950;50.960;7.138;2023-06-14T10:54:11;4.95;;;1.83;;
41217;SDS011;26950;50.960;7.138;2023-06-14T10:56:38;3.40;;;2.10;;
41217;SDS011;26950;50.960;7.138;2023-06-14T10:59:12;3.80;;;1.70;;
41217;SDS011;26950;50.960;7.138;2023-06-14T11:01:41;3.55;;;1.90;;
41217;SDS011;26950;50.960;7.138;2023-06-14T11:04:20;3.35;;;1.70;;
41217;SDS011;26950;50.960;7.138;2023-06-14T11:06:47;4.28;;;1.85;;
41217;SDS011;26950;50.960;7.138;2023-06-14T11:09:26;4.75;;;1.88;;
41217;SDS011;26950;50.960;7.138;2023-06-14T11:12:11;4.65;;;1.88;;
41217;SDS011;26950;50.960;7.138;2023-06-14T11:14:39;2.13;;;1.67;;
41217;SDS011;26950;50.960;7.138;2023-06-14T11:17:07;4.30;;;1.88;;
41217;SDS011;26950;50.960;7.138;2023-06-14T11:19:33;3.67;;;1.65;;
41217;SDS011;26950;50.960;7.138;2023-06-14T11:22:01;4.68;;;1.90;;
41217;SDS011;26950;50.960;7.138;2023-06-14T11:24:27;4.80;;;1.63;;
41217;SDS011;26950;50.960;7.138;2023-06-14T11:26:54;3.13;;;1.80;;
41217;SDS011;26950;50.960;7.138;2023-06-14T11:29:22;4.22;;;1.60;;
41217;SDS011;26950;50.960;7.138;2023-06-14T11:31:48;2.90;;;1.65;;
41217;SDS011;26950;50.960;7.138;2023-06-14T11:34:16;2.63;;;1.50;;
41217;SDS011;26950;50.960;7.138;2023-06-14T11:36:43;2.40;;;1.50;;
41217;SDS011;26950;50.960;7.138;2023-06-14T11:39:12;1.60;;;1.50;;
41217;SDS011;26950;50.960;7.138;2023-06-14T11:41:40;3.25;;;1.40;;
41217;SDS011;26950;50.960;7.138;2023-06-14T11:44:08;2.95;;;2.10;;
41217;SDS011;26950;50.960;7.138;2023-06-14T11:46:35;2.88;;;1.33;;
41217;SDS011;26950;50.960;7.138;2023-06-14T11:49:02;1.60;;;1.50;;
41217;SDS011;26950;50.960;7.138;2023-06-14T11:51:30;2.97;;;1.35;;
41217;SDS011;26950;50.960;7.138;2023-06-14T11:53:58;3.25;;;1.63;;
41217;SDS011;26950;50.960;7.138;2023-06-14T11:56:25;4.25;;;1.50;;
41217;SDS011;26950;50.960;7.138;2023-06-14T11:58:52;3.08;;;1.40;;
41217;SDS011;26950;50.960;7.138;2023-06-14T12:01:21;1.88;;;1.40;;
41217;SDS011;26950;50.960;7.138;2023-06-14T12:03:48;2.58;;;1.48;;
41217;SDS011;26950;50.960;7.138;2023-06-14T12:06:15;1.83;;;1.23;;
41217;SDS011;26950;50.960;7.138;2023-06-14T12:08:44;2.42;;;1.42;;
41217;SDS011;26950;50.960;7.138;2023-06-14T12:11:14;2.50;;;1.50;;
41217;SDS011;26950;50.960;7.138;2023-06-14T12:13:42;3.65;;;1.20;;
41217;SDS011;26950;50.960;7.138;2023-06-14T12:16:09;2.47;;;1.40;;
41217;SDS011;26950;50.960;7.138;2023-06-14T12:18:37;3.80;;;1.40;;
41217;SDS011;26950;50.960;7.138;2023-06-14T12:21:04;2.22;;;1.23;;
41217;SDS011;26950;50.960;7.138;2023-06-14T12:23:45;2.35;;;1.15;;
41217;SDS011;26950;50.960;7.138;2023-06-14T12:26:13;1.75;;;1.33;;
41217;SDS011;26950;50.960;7.138;2023-06-14T12:28:41;1.85;;;1.38;;
41217;SDS011;26950;50.960;7.138;2023-06-14T12:31:08;3.03;;;1.70;;
41217;SDS011;26950;50.960;7.138;2023-06-14T12:33:35;6.80;;;1.42;;
41217;SDS011;26950;50.960;7.138;2023-06-14T12:36:02;4.50;;;1.45;;
41217;SDS011;26950;50.960;7.138;2023-06-14T12:38:29;1.55;;;1.00;;
41217;SDS011;26950;50.960;7.138;2023-06-14T12:40:57;3.13;;;1.30;;
41217;SDS011;26950;50.960;7.138;2023-06-14T12:43:24;10.02;;;1.50;;
41217;SDS011;26950;50.960;7.138;2023-06-14T12:45:51;4.50;;;1.60;;
41217;SDS011;26950;50.960;7.138;2023-06-14T12:48:17;1.55;;;1.40;;
41217;SDS011;26950;50.960;7.138;2023-06-14T12:50:44;1.98;;;1.52;;
41217;SDS011;26950;50.960;7.138;2023-06-14T12:53:11;1.90;;;1.50;;
41217;SDS011;26950;50.960;7.138;2023-06-14T12:55:37;4.57;;;1.60;;
41217;SDS011;26950;50.960;7.138;2023-06-14T12:58:05;4.90;;;1.77;;
41217;SDS011;26950;50.960;7.138;2023-06-14T13:00:32;2.00;;;1.50;;
41217;SDS011;26950;50.960;7.138;2023-06-14T13:02:58;3.20;;;1.60;;
41217;SDS011;26950;50.960;7.138;2023-06-14T13:05:25;4.25;;;1.80;;
41217;SDS011;26950;50.960;7.138;2023-06-14T13:07:51;3.58;;;1.50;;
41217;SDS011;26950;50.960;7.138;2023-06-14T13:10:18;4.00;;;1.80;;
41217;SDS011;26950;50.960;7.138;2023-06-14T13:12:45;2.10;;;1.60;;
41217;SDS011;26950;50.960;7.138;2023-06-14T13:15:12;2.60;;;1.70;;
41217;SDS011;26950;50.960;7.138;2023-06-14T13:17:39;3.33;;;1.83;;
41217;SDS011;26950;50.960;7.138;2023-06-14T13:20:07;2.60;;;1.70;;
41217;SDS011;26950;50.960;7.138;2023-06-14T13:22:36;5.53;;;1.90;;
41217;SDS011;26950;50.960;7.138;2023-06-14T13:25:04;2.30;;;2.10;;
41217;SDS011;26950;50.960;7.138;2023-06-14T13:27:32;4.57;;;1.83;;
41217;SDS011;26950;50.960;7.138;2023-06-14T13:29:58;2.72;;;1.85;;
41217;SDS011;26950;50.960;7.138;2023-06-14T13:32:26;3.17;;;1.80;;
41217;SDS011;26950;50.960;7.138;2023-06-14T13:34:53;2.60;;;1.75;;
41217;SDS011;26950;50.960;7.138;2023-06-14T13:37:19;4.82;;;1.65;;
41217;SDS011;26950;50.960;7.138;2023-06-14T13:39:46;4.28;;;1.70;;
41217;SDS011;26950;50.960;7.138;2023-06-14T13:42:13;2.38;;;1.58;;
41217;SDS011;26950;50.960;7.138;2023-06-14T13:44:39;2.42;;;1.77;;
41217;SDS011;26950;50.960;7.138;2023-06-14T13:47:06;4.22;;;1.70;;
41217;SDS011;26950;50.960;7.138;2023-06-14T13:49:34;4.97;;;2.00;;
41217;SDS011;26950;50.960;7.138;2023-06-14T13:52:01;3.22;;;1.60;;
41217;SDS011;26950;50.960;7.138;2023-06-14T13:54:27;2.53;;;2.00;;
41217;SDS011;26950;50.960;7.138;2023-06-14T13:56:54;2.88;;;1.70;;
41217;SDS011;26950;50.960;7.138;2023-06-14T13:59:21;3.83;;;2.00;;
41217;SDS011;26950;50.960;7.138;2023-06-14T14:01:48;2.63;;;1.80;;
41217;SDS011;26950;50.960;7.138;2023-06-14T14:04:14;7.53;;;1.90;;
41217;SDS011;26950;50.960;7.138;2023-06-14T14:06:42;2.45;;;1.58;;
41217;SDS011;26950;50.960;7.138;2023-06-14T14:09:09;4.80;;;1.80;;
41217;SDS011;26950;50.960;7.138;2023-06-14T14:11:36;3.33;;;1.75;;
41217;SDS011;26950;50.960;7.138;2023-06-14T14:14:03;5.50;;;2.00;;
41217;SDS011;26950;50.960;7.138;2023-06-14T14:16:30;3.22;;;1.85;;
41217;SDS011;26950;50.960;7.138;2023-06-14T14:18:56;3.70;;;1.60;;
41217;SDS011;26950;50.960;7.138;2023-06-14T14:21:23;2.30;;;1.73;;
41217;SDS011;26950;50.960;7.138;2023-06-14T14:23:51;4.80;;;2.00;;
41217;SDS011;26950;50.960;7.138;2023-06-14T14:26:18;2.83;;;1.77;;
41217;SDS011;26950;50.960;7.138;2023-06-14T14:28:45;2.58;;;1.88;;
41217;SDS011;26950;50.960;7.138;2023-06-14T14:31:12;2.83;;;1.85;;
41217;SDS011;26950;50.960;7.138;2023-06-14T14:33:38;6.22;;;1.90;;
41217;SDS011;26950;50.960;7.138;2023-06-14T14:36:05;2.63;;;1.90;;
41217;SDS011;26950;50.960;7.138;2023-06-14T14:38:32;3.50;;;1.90;;
41217;SDS011;26950;50.960;7.138;2023-06-14T14:41:00;3.33;;;1.90;;
41217;SDS011;26950;50.960;7.138;2023-06-14T14:43:27;2.55;;;1.60;;
41217;SDS011;26950;50.960;7.138;2023-06-14T14:45:56;4.00;;;1.98;;
41217;SDS011;26950;50.960;7.138;2023-06-14T14:48:23;6.68;;;2.10;;
41217;SDS011;26950;50.960;7.138;2023-06-14T14:50:50;4.53;;;1.90;;